sensor_id;sensor_type;location;lat;lon;timestamp;temperature;humidity
1476;DHT22;730;48.870;12.542;2024-01-07T00:01:38;5.90;1.00
1476;DHT22;730;48.870;12.542;2024-01-07T00:04:04;5.90;1.00
1476;DHT22;730;48.870;12.542;2024-01-07T00:06:30;6.00;1.00
1476;DHT22;730;48.870;12.542;2024-01-07T00:08:56;6.00;1.00
1476;DHT22;730;48.870;12.542;2024-01-07T00:11:23;6.00;1.00
1476;DHT22;730;48.870;12.542;2024-01-07T00:13:49;6.00;1.00
1476;DHT22;730;48.870;12.542;2024-01-07T00:16:15;5.90;1.00
1476;DHT22;730;48.870;12.542;2024-01-07T00:18:41;6.00;1.00
1476;DHT22;730;48.870;12.542;2024-01-07T00:21:07;6.00;1.00
1476;DHT22;730;48.870;12.542;2024-01-07T00:23:33;6.00;1.00
1476;DHT22;730;48.870;12.542;2024-01-07T00:25:59;5.90;1.00
1476;DHT22;730;48.870;12.542;2024-01-07T00:28:25;5.90;1.00
1476;DHT22;730;48.870;12.542;2024-01-07T00:30:52;5.90;1.00
1476;DHT22;730;48.870;12.542;2024-01-07T00:33:18;5.90;1.00
1476;DHT22;730;48.870;12.542;2024-01-07T00:35:44;5.90;1.00
1476;DHT22;730;48.870;12.542;2024-01-07T00:38:10;5.90;1.00
1476;DHT22;730;48.870;12.542;2024-01-07T00:40:36;5.90;1.00
1476;DHT22;730;48.870;12.542;2024-01-07T00:43:02;5.80;1.00
1476;DHT22;730;48.870;12.542;2024-01-07T00:45:28;5.80;1.00
1476;DHT22;730;48.870;12.542;2024-01-07T00:47:54;5.80;1.00
1476;DHT22;730;48.870;12.542;2024-01-07T00:50:20;5.80;1.00
1476;DHT22;730;48.870;12.542;2024-01-07T00:52:46;5.80;1.00
1476;DHT22;730;48.870;12.542;2024-01-07T00:55:12;5.70;1.00
1476;DHT22;730;48.870;12.542;2024-01-07T00:57:38;5.80;1.00
1476;DHT22;730;48.870;12.542;2024-01-07T01:00:05;5.80;1.00
1476;DHT22;730;48.870;12.542;2024-01-07T01:02:32;5.80;1.00
1476;DHT22;730;48.870;12.542;2024-01-07T01:04:58;5.80;1.00
1476;DHT22;730;48.870;12.542;2024-01-07T01:07:24;5.80;1.00
1476;DHT22;730;48.870;12.542;2024-01-07T01:09:50;5.80;1.00
1476;DHT22;730;48.870;12.542;2024-01-07T01:12:16;5.80;1.00
1476;DHT22;730;48.870;12.542;2024-01-07T01:14:42;5.80;1.00
1476;DHT22;730;48.870;12.542;2024-01-07T01:17:08;5.80;1.00
1476;DHT22;730;48.870;12.542;2024-01-07T01:19:34;5.80;1.00
1476;DHT22;730;48.870;12.542;2024-01-07T01:22:00;5.80;1.00
1476;DHT22;730;48.870;12.542;2024-01-07T01:24:26;5.80;1.00
1476;DHT22;730;48.870;12.542;2024-01-07T01:26:52;5.70;1.00
1476;DHT22;730;48.870;12.542;2024-01-07T01:29:18;5.70;1.00
1476;DHT22;730;48.870;12.542;2024-01-07T01:31:44;5.70;1.00
1476;DHT22;730;48.870;12.542;2024-01-07T01:34:10;5.60;1.00
1476;DHT22;730;48.870;12.542;2024-01-07T01:36:36;5.60;1.00
1476;DHT22;730;48.870;12.542;2024-01-07T01:39:02;5.60;1.00
1476;DHT22;730;48.870;12.542;2024-01-07T01:41:29;5.70;1.00
1476;DHT22;730;48.870;12.542;2024-01-07T01:43:59;5.60;1.00
1476;DHT22;730;48.870;12.542;2024-01-07T01:46:25;5.60;1.00
1476;DHT22;730;48.870;12.542;2024-01-07T01:48:52;5.60;1.00
1476;DHT22;730;48.870;12.542;2024-01-07T01:51:18;5.60;1.00
1476;DHT22;730;48.870;12.542;2024-01-07T01:53:45;5.60;1.00
1476;DHT22;730;48.870;12.542;2024-01-07T01:56:12;5.50;1.00
1476;DHT22;730;48.870;12.542;2024-01-07T01:58:38;5.60;1.00
1476;DHT22;730;48.870;12.542;2024-01-07T02:01:04;5.60;1.00
1476;DHT22;730;48.870;12.542;2024-01-07T02:03:31;5.50;1.00
1476;DHT22;730;48.870;12.542;2024-01-07T02:05:57;5.60;1.00
1476;DHT22;730;48.870;12.542;2024-01-07T02:08:24;5.60;1.00
1476;DHT22;730;48.870;12.542;2024-01-07T02:10:53;5.60;1.00
1476;DHT22;730;48.870;12.542;2024-01-07T02:13:19;5.60;1.00
1476;DHT22;730;48.870;12.542;2024-01-07T02:15:45;5.60;1.00
1476;DHT22;730;48.870;12.542;2024-01-07T02:18:11;5.50;1.00
1476;DHT22;730;48.870;12.542;2024-01-07T02:20:37;5.60;1.00
1476;DHT22;730;48.870;12.542;2024-01-07T02:23:04;5.50;1.00
1476;DHT22;730;48.870;12.542;2024-01-07T02:25:37;5.50;1.00
1476;DHT22;730;48.870;12.542;2024-01-07T02:28:04;5.50;1.00
1476;DHT22;730;48.870;12.542;2024-01-07T02:30:31;5.50;1.00
1476;DHT22;730;48.870;12.542;2024-01-07T02:33:01;5.40;1.00
1476;DHT22;730;48.870;12.542;2024-01-07T02:35:28;5.40;1.00
1476;DHT22;730;48.870;12.542;2024-01-07T02:37:54;5.40;1.00
1476;DHT22;730;48.870;12.542;2024-01-07T02:40:20;5.40;1.00
1476;DHT22;730;48.870;12.542;2024-01-07T02:42:46;5.40;1.00
1476;DHT22;730;48.870;12.542;2024-01-07T02:45:12;5.40;1.00
1476;DHT22;730;48.870;12.542;2024-01-07T02:47:38;5.30;1.00
1476;DHT22;730;48.870;12.542;2024-01-07T02:50:05;5.30;1.00
1476;DHT22;730;48.870;12.542;2024-01-07T02:52:31;5.30;1.00
1476;DHT22;730;48.870;12.542;2024-01-07T02:54:57;5.30;1.00
1476;DHT22;730;48.870;12.542;2024-01-07T02:57:23;5.20;1.00
1476;DHT22;730;48.870;12.542;2024-01-07T02:59:49;5.20;1.00
1476;DHT22;730;48.870;12.542;2024-01-07T03:02:15;5.10;1.00
1476;DHT22;730;48.870;12.542;2024-01-07T03:04:42;5.10;1.00
1476;DHT22;730;48.870;12.542;2024-01-07T03:07:08;5.10;1.00
1476;DHT22;730;48.870;12.542;2024-01-07T03:09:34;5.10;1.00
1476;DHT22;730;48.870;12.542;2024-01-07T03:12:00;5.10;1.00
1476;DHT22;730;48.870;12.542;2024-01-07T03:14:27;5.10;1.00
1476;DHT22;730;48.870;12.542;2024-01-07T03:16:53;5.10;1.00
1476;DHT22;730;48.870;12.542;2024-01-07T03:19:19;5.10;1.00
1476;DHT22;730;48.870;12.542;2024-01-07T03:21:51;5.00;1.00
1476;DHT22;730;48.870;12.542;2024-01-07T03:24:17;5.10;1.00
1476;DHT22;730;48.870;12.542;2024-01-07T03:26:43;5.00;1.00
1476;DHT22;730;48.870;12.542;2024-01-07T03:29:09;5.00;1.00
1476;DHT22;730;48.870;12.542;2024-01-07T03:31:35;5.00;1.00
1476;DHT22;730;48.870;12.542;2024-01-07T03:34:01;5.00;1.00
1476;DHT22;730;48.870;12.542;2024-01-07T03:36:29;4.90;1.00
1476;DHT22;730;48.870;12.542;2024-01-07T03:38:55;4.90;1.00
1476;DHT22;730;48.870;12.542;2024-01-07T03:41:22;4.90;1.00
1476;DHT22;730;48.870;12.542;2024-01-07T03:43:48;4.80;1.00
1476;DHT22;730;48.870;12.542;2024-01-07T03:46:15;4.80;1.00
1476;DHT22;730;48.870;12.542;2024-01-07T03:48:42;4.80;1.00
1476;DHT22;730;48.870;12.542;2024-01-07T03:51:08;4.80;1.00
1476;DHT22;730;48.870;12.542;2024-01-07T03:53:42;4.80;1.00
1476;DHT22;730;48.870;12.542;2024-01-07T03:56:09;4.80;1.00
1476;DHT22;730;48.870;12.542;2024-01-07T03:58:35;4.70;1.00
1476;DHT22;730;48.870;12.542;2024-01-07T04:01:02;4.80;1.00
1476;DHT22;730;48.870;12.542;2024-01-07T04:03:28;4.70;1.00
1476;DHT22;730;48.870;12.542;2024-01-07T04:05:54;4.70;1.00
1476;DHT22;730;48.870;12.542;2024-01-07T04:08:20;4.60;1.00
1476;DHT22;730;48.870;12.542;2024-01-07T04:10:47;4.60;1.00
1476;DHT22;730;48.870;12.542;2024-01-07T04:13:14;4.60;1.00
1476;DHT22;730;48.870;12.542;2024-01-07T04:15:40;4.50;1.00
1476;DHT22;730;48.870;12.542;2024-01-07T04:18:06;4.50;1.00
1476;DHT22;730;48.870;12.542;2024-01-07T04:20:32;4.50;1.00
1476;DHT22;730;48.870;12.542;2024-01-07T04:22:58;4.50;1.00
1476;DHT22;730;48.870;12.542;2024-01-07T04:25:24;4.40;1.00
1476;DHT22;730;48.870;12.542;2024-01-07T04:27:50;4.40;1.00
1476;DHT22;730;48.870;12.542;2024-01-07T04:30:16;4.40;1.00
1476;DHT22;730;48.870;12.542;2024-01-07T04:32:43;4.30;1.00
1476;DHT22;730;48.870;12.542;2024-01-07T04:35:09;4.30;1.00
1476;DHT22;730;48.870;12.542;2024-01-07T04:37:36;4.30;1.00
1476;DHT22;730;48.870;12.542;2024-01-07T04:40:03;4.30;1.00
1476;DHT22;730;48.870;12.542;2024-01-07T04:42:30;4.30;1.00
1476;DHT22;730;48.870;12.542;2024-01-07T04:44:56;4.30;1.00
1476;DHT22;730;48.870;12.542;2024-01-07T04:47:24;4.20;1.00
1476;DHT22;730;48.870;12.542;2024-01-07T04:49:50;4.20;1.00
1476;DHT22;730;48.870;12.542;2024-01-07T04:52:16;4.20;1.00
1476;DHT22;730;48.870;12.542;2024-01-07T04:54:42;4.10;1.00
1476;DHT22;730;48.870;12.542;2024-01-07T04:57:09;4.20;1.00
1476;DHT22;730;48.870;12.542;2024-01-07T04:59:35;4.10;1.00
1476;DHT22;730;48.870;12.542;2024-01-07T05:02:01;4.10;1.00
1476;DHT22;730;48.870;12.542;2024-01-07T05:04:27;4.10;1.00
1476;DHT22;730;48.870;12.542;2024-01-07T05:06:53;4.10;1.00
1476;DHT22;730;48.870;12.542;2024-01-07T05:09:19;4.10;1.00
1476;DHT22;730;48.870;12.542;2024-01-07T05:11:45;4.00;1.00
1476;DHT22;730;48.870;12.542;2024-01-07T05:14:11;4.10;1.00
1476;DHT22;730;48.870;12.542;2024-01-07T05:16:37;4.10;1.00
1476;DHT22;730;48.870;12.542;2024-01-07T05:19:03;4.00;1.00
1476;DHT22;730;48.870;12.542;2024-01-07T05:21:29;4.00;1.00
1476;DHT22;730;48.870;12.542;2024-01-07T05:23:55;4.00;1.00
1476;DHT22;730;48.870;12.542;2024-01-07T05:26:22;4.00;1.00
1476;DHT22;730;48.870;12.542;2024-01-07T05:28:48;3.90;1.00
1476;DHT22;730;48.870;12.542;2024-01-07T05:31:15;3.90;1.00
1476;DHT22;730;48.870;12.542;2024-01-07T05:33:43;3.90;1.00
1476;DHT22;730;48.870;12.542;2024-01-07T05:36:10;3.90;1.00
1476;DHT22;730;48.870;12.542;2024-01-07T05:38:36;3.90;1.00
1476;DHT22;730;48.870;12.542;2024-01-07T05:41:02;3.90;1.00
1476;DHT22;730;48.870;12.542;2024-01-07T05:43:28;3.90;1.00
1476;DHT22;730;48.870;12.542;2024-01-07T05:45:54;3.90;1.00
1476;DHT22;730;48.870;12.542;2024-01-07T05:48:22;3.80;1.00
1476;DHT22;730;48.870;12.542;2024-01-07T05:50:48;3.80;1.00
1476;DHT22;730;48.870;12.542;2024-01-07T05:53:17;3.90;1.00
1476;DHT22;730;48.870;12.542;2024-01-07T05:55:43;3.90;1.00
1476;DHT22;730;48.870;12.542;2024-01-07T05:58:09;3.80;1.00
1476;DHT22;730;48.870;12.542;2024-01-07T06:00:42;3.80;1.00
1476;DHT22;730;48.870;12.542;2024-01-07T06:03:10;3.80;1.00
1476;DHT22;730;48.870;12.542;2024-01-07T06:05:38;3.80;1.00
1476;DHT22;730;48.870;12.542;2024-01-07T06:08:04;3.80;1.00
1476;DHT22;730;48.870;12.542;2024-01-07T06:10:31;3.80;1.00
1476;DHT22;730;48.870;12.542;2024-01-07T06:12:57;3.80;1.00
1476;DHT22;730;48.870;12.542;2024-01-07T06:15:23;3.80;1.00
1476;DHT22;730;48.870;12.542;2024-01-07T06:17:49;3.70;1.00
1476;DHT22;730;48.870;12.542;2024-01-07T06:20:15;3.70;1.00
1476;DHT22;730;48.870;12.542;2024-01-07T06:22:41;3.70;1.00
1476;DHT22;730;48.870;12.542;2024-01-07T06:25:07;3.70;1.00
1476;DHT22;730;48.870;12.542;2024-01-07T06:27:33;3.70;1.00
1476;DHT22;730;48.870;12.542;2024-01-07T06:30:00;3.60;1.00
1476;DHT22;730;48.870;12.542;2024-01-07T06:32:26;3.60;1.00
1476;DHT22;730;48.870;12.542;2024-01-07T06:34:52;3.50;1.00
1476;DHT22;730;48.870;12.542;2024-01-07T06:37:18;3.50;1.00
1476;DHT22;730;48.870;12.542;2024-01-07T06:39:44;3.50;1.00
1476;DHT22;730;48.870;12.542;2024-01-07T06:42:10;3.40;1.00
1476;DHT22;730;48.870;12.542;2024-01-07T06:44:37;3.40;1.00
1476;DHT22;730;48.870;12.542;2024-01-07T06:47:06;3.40;1.00
1476;DHT22;730;48.870;12.542;2024-01-07T06:49:32;3.30;1.00
1476;DHT22;730;48.870;12.542;2024-01-07T06:51:59;3.30;1.00
1476;DHT22;730;48.870;12.542;2024-01-07T06:54:25;3.30;1.00
1476;DHT22;730;48.870;12.542;2024-01-07T06:56:51;3.30;1.00
1476;DHT22;730;48.870;12.542;2024-01-07T06:59:17;3.30;1.00
1476;DHT22;730;48.870;12.542;2024-01-07T07:01:43;3.30;1.00
1476;DHT22;730;48.870;12.542;2024-01-07T07:04:09;3.30;1.00
1476;DHT22;730;48.870;12.542;2024-01-07T07:06:35;3.30;1.00
1476;DHT22;730;48.870;12.542;2024-01-07T07:09:02;3.30;1.00
1476;DHT22;730;48.870;12.542;2024-01-07T07:11:28;3.20;1.00
1476;DHT22;730;48.870;12.542;2024-01-07T07:13:54;3.20;1.00
1476;DHT22;730;48.870;12.542;2024-01-07T07:16:20;3.20;1.00
1476;DHT22;730;48.870;12.542;2024-01-07T07:18:46;3.20;1.00
1476;DHT22;730;48.870;12.542;2024-01-07T07:21:12;3.20;1.00
1476;DHT22;730;48.870;12.542;2024-01-07T07:23:38;3.20;1.00
1476;DHT22;730;48.870;12.542;2024-01-07T07:26:04;3.20;1.00
1476;DHT22;730;48.870;12.542;2024-01-07T07:28:30;3.20;1.00
1476;DHT22;730;48.870;12.542;2024-01-07T07:30:56;3.20;1.00
1476;DHT22;730;48.870;12.542;2024-01-07T07:33:25;3.10;1.00
1476;DHT22;730;48.870;12.542;2024-01-07T07:35:51;3.10;1.00
1476;DHT22;730;48.870;12.542;2024-01-07T07:38:17;3.10;1.00
1476;DHT22;730;48.870;12.542;2024-01-07T07:40:43;3.10;1.00
1476;DHT22;730;48.870;12.542;2024-01-07T07:43:10;3.10;1.00
1476;DHT22;730;48.870;12.542;2024-01-07T07:45:37;3.10;1.00
1476;DHT22;730;48.870;12.542;2024-01-07T07:48:03;3.10;1.00
1476;DHT22;730;48.870;12.542;2024-01-07T07:50:29;3.10;1.00
1476;DHT22;730;48.870;12.542;2024-01-07T07:52:55;3.00;1.00
1476;DHT22;730;48.870;12.542;2024-01-07T07:55:21;3.00;1.00
1476;DHT22;730;48.870;12.542;2024-01-07T07:57:47;3.00;1.00
1476;DHT22;730;48.870;12.542;2024-01-07T08:00:13;3.00;1.00
1476;DHT22;730;48.870;12.542;2024-01-07T08:02:40;3.00;1.00
1476;DHT22;730;48.870;12.542;2024-01-07T08:05:07;3.10;1.00
1476;DHT22;730;48.870;12.542;2024-01-07T08:07:33;3.10;1.00
1476;DHT22;730;48.870;12.542;2024-01-07T08:09:59;3.10;1.00
1476;DHT22;730;48.870;12.542;2024-01-07T08:12:25;3.10;1.00
1476;DHT22;730;48.870;12.542;2024-01-07T08:14:51;3.10;1.00
1476;DHT22;730;48.870;12.542;2024-01-07T08:17:17;3.10;1.00
1476;DHT22;730;48.870;12.542;2024-01-07T08:19:43;3.10;1.00
1476;DHT22;730;48.870;12.542;2024-01-07T08:22:09;3.10;1.00
1476;DHT22;730;48.870;12.542;2024-01-07T08:24:35;3.00;1.00
1476;DHT22;730;48.870;12.542;2024-01-07T08:27:01;3.10;1.00
1476;DHT22;730;48.870;12.542;2024-01-07T08:29:29;3.10;1.00
1476;DHT22;730;48.870;12.542;2024-01-07T08:31:55;3.10;1.00
1476;DHT22;730;48.870;12.542;2024-01-07T08:34:21;3.10;1.00
1476;DHT22;730;48.870;12.542;2024-01-07T08:36:47;3.00;1.00
1476;DHT22;730;48.870;12.542;2024-01-07T08:39:16;3.00;1.00
1476;DHT22;730;48.870;12.542;2024-01-07T08:41:42;3.00;1.00
1476;DHT22;730;48.870;12.542;2024-01-07T08:44:08;3.00;1.00
1476;DHT22;730;48.870;12.542;2024-01-07T08:46:34;3.00;1.00
1476;DHT22;730;48.870;12.542;2024-01-07T08:49:02;2.90;1.00
1476;DHT22;730;48.870;12.542;2024-01-07T08:51:28;2.80;1.00
1476;DHT22;730;48.870;12.542;2024-01-07T08:53:55;2.80;1.00
1476;DHT22;730;48.870;12.542;2024-01-07T08:56:23;2.80;1.00
1476;DHT22;730;48.870;12.542;2024-01-07T08:58:49;2.80;1.00
1476;DHT22;730;48.870;12.542;2024-01-07T09:01:15;2.80;1.00
1476;DHT22;730;48.870;12.542;2024-01-07T09:03:41;2.70;1.00
1476;DHT22;730;48.870;12.542;2024-01-07T09:06:08;2.70;1.00
1476;DHT22;730;48.870;12.542;2024-01-07T09:08:34;2.70;1.00
1476;DHT22;730;48.870;12.542;2024-01-07T09:11:03;2.70;1.00
1476;DHT22;730;48.870;12.542;2024-01-07T09:13:29;2.70;1.00
1476;DHT22;730;48.870;12.542;2024-01-07T09:15:55;2.70;1.00
1476;DHT22;730;48.870;12.542;2024-01-07T09:18:22;2.60;1.00
1476;DHT22;730;48.870;12.542;2024-01-07T09:20:48;2.60;1.00
1476;DHT22;730;48.870;12.542;2024-01-07T09:23:14;2.60;1.00
1476;DHT22;730;48.870;12.542;2024-01-07T09:25:41;2.50;1.00
1476;DHT22;730;48.870;12.542;2024-01-07T09:28:07;2.60;1.00
1476;DHT22;730;48.870;12.542;2024-01-07T09:30:33;2.60;1.00
1476;DHT22;730;48.870;12.542;2024-01-07T09:32:59;2.50;1.00
1476;DHT22;730;48.870;12.542;2024-01-07T09:35:25;2.50;1.00
1476;DHT22;730;48.870;12.542;2024-01-07T09:37:51;2.50;1.00
1476;DHT22;730;48.870;12.542;2024-01-07T09:40:18;2.50;1.00
1476;DHT22;730;48.870;12.542;2024-01-07T09:42:47;2.50;1.00
1476;DHT22;730;48.870;12.542;2024-01-07T09:45:14;2.50;1.00
1476;DHT22;730;48.870;12.542;2024-01-07T09:47:46;2.50;1.00
1476;DHT22;730;48.870;12.542;2024-01-07T09:50:12;2.50;1.00
1476;DHT22;730;48.870;12.542;2024-01-07T09:52:43;2.50;1.00
1476;DHT22;730;48.870;12.542;2024-01-07T09:55:12;2.50;1.00
1476;DHT22;730;48.870;12.542;2024-01-07T09:57:44;2.50;1.00
1476;DHT22;730;48.870;12.542;2024-01-07T10:00:11;2.50;1.00
1476;DHT22;730;48.870;12.542;2024-01-07T10:02:39;2.50;1.00
1476;DHT22;730;48.870;12.542;2024-01-07T10:05:07;2.50;1.00
1476;DHT22;730;48.870;12.542;2024-01-07T10:07:33;2.50;1.00
1476;DHT22;730;48.870;12.542;2024-01-07T10:10:13;2.50;1.00
1476;DHT22;730;48.870;12.542;2024-01-07T10:12:40;2.50;1.00
1476;DHT22;730;48.870;12.542;2024-01-07T10:15:06;2.50;1.00
1476;DHT22;730;48.870;12.542;2024-01-07T10:17:33;2.50;1.00
1476;DHT22;730;48.870;12.542;2024-01-07T10:19:59;2.50;1.00
1476;DHT22;730;48.870;12.542;2024-01-07T10:22:26;2.50;1.00
1476;DHT22;730;48.870;12.542;2024-01-07T10:24:52;2.90;1.40
1476;DHT22;730;48.870;12.542;2024-01-07T10:27:18;3.00;1.00
1476;DHT22;730;48.870;12.542;2024-01-07T10:29:48;2.90;1.00
1476;DHT22;730;48.870;12.542;2024-01-07T10:32:19;2.80;1.00
1476;DHT22;730;48.870;12.542;2024-01-07T10:34:46;2.70;1.00
1476;DHT22;730;48.870;12.542;2024-01-07T10:37:13;2.70;1.00
1476;DHT22;730;48.870;12.542;2024-01-07T10:39:39;2.60;1.00
1476;DHT22;730;48.870;12.542;2024-01-07T10:42:05;2.60;1.00
1476;DHT22;730;48.870;12.542;2024-01-07T10:44:33;2.50;1.00
1476;DHT22;730;48.870;12.542;2024-01-07T10:46:59;2.50;1.00
1476;DHT22;730;48.870;12.542;2024-01-07T10:49:28;2.40;1.00
1476;DHT22;730;48.870;12.542;2024-01-07T10:52:12;2.40;1.00
1476;DHT22;730;48.870;12.542;2024-01-07T10:54:39;2.30;1.00
1476;DHT22;730;48.870;12.542;2024-01-07T10:57:17;2.30;1.00
1476;DHT22;730;48.870;12.542;2024-01-07T10:59:45;2.30;1.00
1476;DHT22;730;48.870;12.542;2024-01-07T11:02:13;2.30;1.00
1476;DHT22;730;48.870;12.542;2024-01-07T11:05:03;2.30;1.00
1476;DHT22;730;48.870;12.542;2024-01-07T11:07:53;2.20;1.00
1476;DHT22;730;48.870;12.542;2024-01-07T11:10:27;2.20;1.00
1476;DHT22;730;48.870;12.542;2024-01-07T11:12:55;2.20;1.00
1476;DHT22;730;48.870;12.542;2024-01-07T11:15:53;2.20;1.00
1476;DHT22;730;48.870;12.542;2024-01-07T11:18:21;2.30;1.00
1476;DHT22;730;48.870;12.542;2024-01-07T11:20:48;2.30;1.00
1476;DHT22;730;48.870;12.542;2024-01-07T11:23:32;2.30;1.00
1476;DHT22;730;48.870;12.542;2024-01-07T11:26:02;2.30;1.00
1476;DHT22;730;48.870;12.542;2024-01-07T11:31:13;2.30;1.00
1476;DHT22;730;48.870;12.542;2024-01-07T11:33:42;2.20;1.00
1476;DHT22;730;48.870;12.542;2024-01-07T11:36:11;2.20;1.00
1476;DHT22;730;48.870;12.542;2024-01-07T11:38:37;2.20;1.00
1476;DHT22;730;48.870;12.542;2024-01-07T11:41:06;2.20;1.00
1476;DHT22;730;48.870;12.542;2024-01-07T11:43:32;2.10;1.00
1476;DHT22;730;48.870;12.542;2024-01-07T11:46:00;2.10;1.00
1476;DHT22;730;48.870;12.542;2024-01-07T11:48:26;2.10;1.00
1476;DHT22;730;48.870;12.542;2024-01-07T11:50:53;2.10;1.00
1476;DHT22;730;48.870;12.542;2024-01-07T11:53:19;2.10;1.00
1476;DHT22;730;48.870;12.542;2024-01-07T11:55:46;2.10;1.00
1476;DHT22;730;48.870;12.542;2024-01-07T11:58:12;2.10;1.00
1476;DHT22;730;48.870;12.542;2024-01-07T12:00:38;2.10;1.00
1476;DHT22;730;48.870;12.542;2024-01-07T12:03:04;2.10;1.00
1476;DHT22;730;48.870;12.542;2024-01-07T12:05:31;2.10;1.00
1476;DHT22;730;48.870;12.542;2024-01-07T12:07:57;2.10;1.00
1476;DHT22;730;48.870;12.542;2024-01-07T12:10:24;2.10;1.00
1476;DHT22;730;48.870;12.542;2024-01-07T12:12:50;2.20;1.00
1476;DHT22;730;48.870;12.542;2024-01-07T12:15:17;2.20;1.00
1476;DHT22;730;48.870;12.542;2024-01-07T12:17:55;2.10;1.00
1476;DHT22;730;48.870;12.542;2024-01-07T12:20:22;2.10;1.00
1476;DHT22;730;48.870;12.542;2024-01-07T12:22:48;2.10;1.00
1476;DHT22;730;48.870;12.542;2024-01-07T12:25:21;2.10;1.00
1476;DHT22;730;48.870;12.542;2024-01-07T12:27:47;2.10;1.00
1476;DHT22;730;48.870;12.542;2024-01-07T12:30:19;2.10;1.00
1476;DHT22;730;48.870;12.542;2024-01-07T12:32:46;2.10;1.00
1476;DHT22;730;48.870;12.542;2024-01-07T12:35:12;2.10;1.00
1476;DHT22;730;48.870;12.542;2024-01-07T12:37:38;2.10;1.00
1476;DHT22;730;48.870;12.542;2024-01-07T12:40:05;2.10;1.00
1476;DHT22;730;48.870;12.542;2024-01-07T12:42:34;2.10;1.00
1476;DHT22;730;48.870;12.542;2024-01-07T12:45:00;2.00;1.00
1476;DHT22;730;48.870;12.542;2024-01-07T12:47:26;2.00;1.00
1476;DHT22;730;48.870;12.542;2024-01-07T12:49:52;2.00;1.00
1476;DHT22;730;48.870;12.542;2024-01-07T12:52:18;2.00;1.00
1476;DHT22;730;48.870;12.542;2024-01-07T12:54:45;2.00;1.00
1476;DHT22;730;48.870;12.542;2024-01-07T12:57:12;1.90;1.00
1476;DHT22;730;48.870;12.542;2024-01-07T12:59:38;1.90;1.00
1476;DHT22;730;48.870;12.542;2024-01-07T13:02:05;1.90;1.00
1476;DHT22;730;48.870;12.542;2024-01-07T13:04:31;1.90;1.00
1476;DHT22;730;48.870;12.542;2024-01-07T13:06:58;2.00;1.00
1476;DHT22;730;48.870;12.542;2024-01-07T13:09:24;1.90;1.00
1476;DHT22;730;48.870;12.542;2024-01-07T13:11:50;1.90;1.00
1476;DHT22;730;48.870;12.542;2024-01-07T13:14:17;1.90;1.00
1476;DHT22;730;48.870;12.542;2024-01-07T13:16:43;1.80;1.00
1476;DHT22;730;48.870;12.542;2024-01-07T13:19:09;1.80;1.00
1476;DHT22;730;48.870;12.542;2024-01-07T13:21:38;1.80;1.00
1476;DHT22;730;48.870;12.542;2024-01-07T13:24:04;1.80;1.00
1476;DHT22;730;48.870;12.542;2024-01-07T13:26:31;1.80;1.00
1476;DHT22;730;48.870;12.542;2024-01-07T13:28:57;1.80;1.00
1476;DHT22;730;48.870;12.542;2024-01-07T13:31:23;1.80;1.00
1476;DHT22;730;48.870;12.542;2024-01-07T13:33:49;1.80;1.00
1476;DHT22;730;48.870;12.542;2024-01-07T13:36:15;1.70;1.00
1476;DHT22;730;48.870;12.542;2024-01-07T13:38:41;1.70;1.00
1476;DHT22;730;48.870;12.542;2024-01-07T13:41:08;1.70;1.00
1476;DHT22;730;48.870;12.542;2024-01-07T13:43:34;1.70;1.00
1476;DHT22;730;48.870;12.542;2024-01-07T13:46:00;1.60;1.00
1476;DHT22;730;48.870;12.542;2024-01-07T13:48:29;1.60;1.00
1476;DHT22;730;48.870;12.542;2024-01-07T13:50:55;1.60;1.00
1476;DHT22;730;48.870;12.542;2024-01-07T13:53:21;1.60;1.00
1476;DHT22;730;48.870;12.542;2024-01-07T13:55:47;1.60;1.00
1476;DHT22;730;48.870;12.542;2024-01-07T13:58:13;1.60;1.00
1476;DHT22;730;48.870;12.542;2024-01-07T14:00:41;1.60;1.00
1476;DHT22;730;48.870;12.542;2024-01-07T14:03:07;1.60;1.00
1476;DHT22;730;48.870;12.542;2024-01-07T14:05:33;1.60;1.00
1476;DHT22;730;48.870;12.542;2024-01-07T14:07:59;1.60;1.00
1476;DHT22;730;48.870;12.542;2024-01-07T14:10:25;1.60;1.00
1476;DHT22;730;48.870;12.542;2024-01-07T14:12:52;1.50;1.00
1476;DHT22;730;48.870;12.542;2024-01-07T14:15:18;1.50;1.00
1476;DHT22;730;48.870;12.542;2024-01-07T14:17:45;1.50;1.00
1476;DHT22;730;48.870;12.542;2024-01-07T14:20:11;1.50;1.00
1476;DHT22;730;48.870;12.542;2024-01-07T14:22:38;1.50;1.00
1476;DHT22;730;48.870;12.542;2024-01-07T14:25:04;1.50;1.00
1476;DHT22;730;48.870;12.542;2024-01-07T14:27:31;1.50;1.00
1476;DHT22;730;48.870;12.542;2024-01-07T14:29:57;1.50;1.00
1476;DHT22;730;48.870;12.542;2024-01-07T14:32:23;1.40;1.00
1476;DHT22;730;48.870;12.542;2024-01-07T14:34:49;1.40;1.00
1476;DHT22;730;48.870;12.542;2024-01-07T14:37:16;1.50;1.00
1476;DHT22;730;48.870;12.542;2024-01-07T14:39:42;1.40;1.00
1476;DHT22;730;48.870;12.542;2024-01-07T14:42:08;1.50;1.00
1476;DHT22;730;48.870;12.542;2024-01-07T14:44:34;1.50;1.00
1476;DHT22;730;48.870;12.542;2024-01-07T14:47:00;1.40;1.00
1476;DHT22;730;48.870;12.542;2024-01-07T14:49:27;1.40;1.00
1476;DHT22;730;48.870;12.542;2024-01-07T14:51:53;1.40;1.00
1476;DHT22;730;48.870;12.542;2024-01-07T14:54:19;1.30;1.00
1476;DHT22;730;48.870;12.542;2024-01-07T14:56:45;1.30;1.00
1476;DHT22;730;48.870;12.542;2024-01-07T14:59:11;1.30;1.00
1476;DHT22;730;48.870;12.542;2024-01-07T15:01:37;1.30;1.00
1476;DHT22;730;48.870;12.542;2024-01-07T15:04:09;1.70;1.00
1476;DHT22;730;48.870;12.542;2024-01-07T15:06:42;2.20;1.00
1476;DHT22;730;48.870;12.542;2024-01-07T15:09:08;2.60;1.00
1476;DHT22;730;48.870;12.542;2024-01-07T15:11:35;2.60;1.00
1476;DHT22;730;48.870;12.542;2024-01-07T15:14:01;2.60;1.00
1476;DHT22;730;48.870;12.542;2024-01-07T15:16:36;2.40;1.00
1476;DHT22;730;48.870;12.542;2024-01-07T15:19:03;2.30;1.00
1476;DHT22;730;48.870;12.542;2024-01-07T15:21:29;2.10;1.00
1476;DHT22;730;48.870;12.542;2024-01-07T15:23:55;2.10;1.00
1476;DHT22;730;48.870;12.542;2024-01-07T15:26:22;2.00;1.00
1476;DHT22;730;48.870;12.542;2024-01-07T15:28:48;1.90;1.00
1476;DHT22;730;48.870;12.542;2024-01-07T15:31:14;1.80;1.00
1476;DHT22;730;48.870;12.542;2024-01-07T15:33:40;1.70;1.00
1476;DHT22;730;48.870;12.542;2024-01-07T15:36:06;1.70;1.00
1476;DHT22;730;48.870;12.542;2024-01-07T15:38:33;1.60;1.00
1476;DHT22;730;48.870;12.542;2024-01-07T15:40:59;1.60;1.00
1476;DHT22;730;48.870;12.542;2024-01-07T15:43:25;1.50;1.00
1476;DHT22;730;48.870;12.542;2024-01-07T15:45:51;1.60;1.00
1476;DHT22;730;48.870;12.542;2024-01-07T15:48:17;1.50;1.00
1476;DHT22;730;48.870;12.542;2024-01-07T15:50:43;1.50;1.00
1476;DHT22;730;48.870;12.542;2024-01-07T15:53:09;1.40;1.00
1476;DHT22;730;48.870;12.542;2024-01-07T15:55:35;1.40;1.00
1476;DHT22;730;48.870;12.542;2024-01-07T15:58:02;1.40;1.00
1476;DHT22;730;48.870;12.542;2024-01-07T16:00:28;1.30;1.00
1476;DHT22;730;48.870;12.542;2024-01-07T16:02:54;1.30;1.00
1476;DHT22;730;48.870;12.542;2024-01-07T16:05:20;1.30;1.00
1476;DHT22;730;48.870;12.542;2024-01-07T16:07:46;1.30;1.00
1476;DHT22;730;48.870;12.542;2024-01-07T16:10:12;1.20;1.00
1476;DHT22;730;48.870;12.542;2024-01-07T16:12:38;1.30;1.00
1476;DHT22;730;48.870;12.542;2024-01-07T16:15:05;1.20;1.00
1476;DHT22;730;48.870;12.542;2024-01-07T16:17:31;1.20;1.00
1476;DHT22;730;48.870;12.542;2024-01-07T16:19:57;1.20;1.00
1476;DHT22;730;48.870;12.542;2024-01-07T16:22:23;1.10;1.00
1476;DHT22;730;48.870;12.542;2024-01-07T16:24:49;1.10;1.00
1476;DHT22;730;48.870;12.542;2024-01-07T16:27:15;1.00;1.00
1476;DHT22;730;48.870;12.542;2024-01-07T16:29:41;1.10;1.00
1476;DHT22;730;48.870;12.542;2024-01-07T16:32:07;1.10;1.00
1476;DHT22;730;48.870;12.542;2024-01-07T16:34:34;1.10;1.00